Time;durP1;ratioP1;P1;durP2;ratioP2;P2;SDS_P1;SDS_P2;PMS_P1;PMS_P2;Temp;Humidity;BMP_temperature;BMP_pressure;BME280_temperature;BME280_humidity;BME280_pressure;Samples;Min_cycle;Max_cycle;Signal;HPM_P1;HPM_P2
2022/06/01 00:00:58;;;;;;;11.65;7.50;;;;;;;16.00;61.11;98301.89;1788208;80;26228;-62
2022/06/01 00:03:25;;;;;;;11.38;7.12;;;;;;;15.92;61.16;98302.27;1789387;79;25621;-59
2022/06/01 00:05:53;;;;;;;12.25;8.20;;;;;;;15.92;61.03;98307.80;1769060;80;27606;-58
2022/06/01 00:08:21;;;;;;;12.35;7.92;;;;;;;15.93;61.32;98298.38;1788808;79;25463;-58
2022/06/01 00:10:49;;;;;;;11.20;8.10;;;;;;;15.83;61.53;98300.28;1788809;79;25502;-57
2022/06/01 00:13:15;;;;;;;14.23;9.15;;;;;;;15.89;61.98;98307.13;1789183;79;25400;-58
2022/06/01 00:15:40;;;;;;;14.50;9.15;;;;;;;15.81;62.60;98308.92;1789134;80;25664;-57
2022/06/01 00:18:08;;;;;;;13.50;8.50;;;;;;;15.75;62.82;98305.42;1789101;80;27588;-57
2022/06/01 00:20:35;;;;;;;14.75;9.13;;;;;;;15.69;63.35;98313.19;1788855;79;25948;-57
2022/06/01 00:23:02;;;;;;;11.30;8.33;;;;;;;15.63;63.25;98312.62;1788996;79;25748;-57
2022/06/01 00:25:29;;;;;;;12.85;8.20;;;;;;;15.66;63.15;98312.52;1788755;80;25632;-57
2022/06/01 00:27:55;;;;;;;11.25;8.25;;;;;;;15.70;63.44;98309.83;1789258;80;25644;-58
2022/06/01 00:30:22;;;;;;;15.65;9.18;;;;;;;15.70;63.66;98311.20;1789487;79;27322;-57
2022/06/01 00:32:49;;;;;;;11.93;8.48;;;;;;;15.68;63.81;98311.56;1789118;79;25574;-57
2022/06/01 00:35:18;;;;;;;15.43;9.18;;;;;;;15.62;64.10;98306.89;1789090;79;25384;-56
2022/06/01 00:37:44;;;;;;;14.68;9.18;;;;;;;15.64;63.77;98307.92;1769632;80;25639;-56
2022/06/01 00:40:14;;;;;;;16.17;8.88;;;;;;;15.66;63.99;98320.80;1789197;80;25605;-56
2022/06/01 00:42:44;;;;;;;14.55;9.55;;;;;;;15.75;64.14;98320.02;1789300;79;28104;-55
2022/06/01 00:45:15;;;;;;;14.77;10.10;;;;;;;15.87;63.89;98323.29;1789237;79;25578;-59
2022/06/01 00:47:42;;;;;;;14.58;9.75;;;;;;;15.87;63.89;98323.29;1789334;79;25581;-60
2022/06/01 00:50:36;;;;;;;12.75;8.68;;;;;;;15.89;63.91;98320.95;1789063;79;26138;-61
2022/06/01 00:53:16;;;;;;;12.80;9.35;;;;;;;15.81;64.66;98336.55;1788826;80;25749;-62
2022/06/01 00:55:56;;;;;;;12.60;9.00;;;;;;;15.66;65.29;98336.78;1769448;80;28258;-61
2022/06/01 00:58:27;;;;;;;;;;;;;;;15.53;65.84;98344.92;1790218;79;25618;-61
2022/06/01 01:00:54;;;;;;;;;;;;;;;15.41;66.41;98362.37;1778416;79;25731;-61
2022/06/01 01:03:23;;;;;;;17.25;9.10;;;;;;;15.29;67.18;98364.03;1772564;81;25626;-61
2022/06/01 01:05:58;;;;;;;15.50;9.55;;;;;;;15.25;67.46;98367.28;1772283;79;25581;-60
2022/06/01 01:08:24;;;;;;;16.55;9.03;;;;;;;15.25;67.58;98374.75;1772144;80;26726;-62
2022/06/01 01:10:50;;;;;;;14.55;9.55;;;;;;;15.30;67.61;98376.70;1772363;81;25368;-62
2022/06/01 01:13:17;;;;;;;12.13;8.65;;;;;;;15.30;67.76;98375.89;1772903;79;25362;-62
2022/06/01 01:15:55;;;;;;;15.98;9.05;;;;;;;15.21;67.50;98377.43;1772364;81;25726;-61
2022/06/01 01:18:31;;;;;;;12.40;8.48;;;;;;;15.21;68.51;98371.09;1772447;79;25627;-62
2022/06/01 01:21:46;;;;;;;11.70;8.10;;;;;;;15.18;68.49;98384.47;1772889;79;27534;-62
2022/06/01 01:24:39;;;;;;;11.60;7.28;;;;;;;15.00;68.80;98370.14;1772370;80;25447;-62
2022/06/01 01:27:07;;;;;;;9.03;6.03;;;;;;;14.82;70.46;98381.25;1772593;80;25613;-57
2022/06/01 01:29:40;;;;;;;7.62;5.85;;;;;;;14.82;70.46;98381.25;1772586;79;25581;-57
2022/06/01 01:32:09;;;;;;;8.73;5.58;;;;;;;14.80;70.32;98389.88;1772847;80;25618;-58
2022/06/01 01:34:38;;;;;;;7.30;5.72;;;;;;;14.74;71.59;98380.20;1772794;80;28172;-59
2022/06/01 01:37:16;;;;;;;6.75;4.85;;;;;;;14.68;72.04;98389.28;1772514;79;25721;-58
2022/06/01 01:39:42;;;;;;;6.55;4.37;;;;;;;14.64;72.50;98396.08;1772696;81;25438;-60
2022/06/01 01:42:08;;;;;;;5.12;4.40;;;;;;;14.64;72.50;98396.08;1772656;79;26101;-57
2022/06/01 01:44:49;;;;;;;6.28;4.50;;;;;;;14.65;72.65;98396.90;1772756;79;25411;-60
2022/06/01 01:47:15;;;;;;;6.33;4.30;;;;;;;14.65;73.32;98394.92;1773269;81;27415;-58
2022/06/01 01:49:42;;;;;;;6.55;4.55;;;;;;;14.63;74.79;98389.53;1772863;79;25601;-57
2022/06/01 01:52:16;;;;;;;4.33;3.92;;;;;;;14.63;74.79;98389.53;1759516;81;25735;-57
2022/06/01 01:55:09;;;;;;;4.90;3.87;;;;;;;14.59;74.24;98387.25;1772678;79;26225;-61
2022/06/01 01:57:50;;;;;;;6.78;4.75;;;;;;;14.55;73.97;98381.05;1772638;79;25572;-57
2022/06/01 02:00:22;;;;;;;;;;;;;;;14.53;74.48;98397.13;1775306;79;27358;-57
2022/06/01 02:03:14;;;;;;;6.97;4.40;;;;;;;14.51;75.10;98426.20;1772779;81;25478;-57
2022/06/01 02:06:11;;;;;;;7.05;4.83;;;;;;;14.38;76.17;98427.59;1772704;79;25666;-57
2022/06/01 02:08:58;;;;;;;6.65;4.60;;;;;;;14.28;75.65;98419.19;1772638;81;26350;-58
2022/06/01 02:14:53;;;;;;;6.83;5.20;;;;;;;14.29;75.82;98411.17;1772420;81;27456;-61
2022/06/01 02:17:49;;;;;;;5.65;4.42;;;;;;;14.28;76.24;98403.25;1772322;79;25406;-59
2022/06/01 02:20:33;;;;;;;7.25;4.95;;;;;;;14.31;76.53;98403.94;1772823;81;25254;-61
2022/06/01 02:23:01;;;;;;;7.75;5.20;;;;;;;14.32;76.09;98407.48;1772423;80;25581;-60
2022/06/01 02:25:29;;;;;;;5.45;4.72;;;;;;;14.37;76.59;98403.13;1772592;80;25752;-62
2022/06/01 02:27:58;;;;;;;6.67;4.17;;;;;;;14.38;77.21;98395.08;1772492;81;27429;-61
2022/06/01 02:30:32;;;;;;;7.37;5.00;;;;;;;14.35;76.53;98398.52;1772614;79;25586;-60
2022/06/01 02:33:00;;;;;;;6.12;4.50;;;;;;;14.39;77.16;98389.81;1772516;79;25649;-61
2022/06/01 02:35:30;;;;;;;6.03;4.47;;;;;;;14.32;77.01;98387.63;1772641;81;26303;-61
2022/06/01 02:37:59;;;;;;;5.92;4.65;;;;;;;14.35;76.88;98380.04;1772746;80;25602;-62
2022/06/01 02:40:28;;;;;;;6.33;4.80;;;;;;;14.40;76.87;98385.30;1772607;79;28305;-61
2022/06/01 02:42:55;;;;;;;5.35;4.33;;;;;;;14.36;77.04;98386.37;1772497;79;26167;-61
2022/06/01 02:45:26;;;;;;;5.22;4.50;;;;;;;14.40;76.88;98384.52;1772758;79;25463;-61
2022/06/01 02:47:56;;;;;;;5.55;4.33;;;;;;;14.39;77.40;98385.67;1772580;81;25709;-61
2022/06/01 02:50:26;;;;;;;5.03;4.42;;;;;;;14.26;77.33;98379.36;1772477;80;33099;-56
2022/06/01 02:52:54;;;;;;;5.45;4.40;;;;;;;14.32;78.07;98373.84;1772942;81;27454;-56
2022/06/01 02:55:23;;;;;;;5.37;4.35;;;;;;;14.28;78.57;98376.47;1772116;81;25577;-58
2022/06/01 02:57:51;;;;;;;5.33;4.37;;;;;;;14.26;77.93;98373.28;1772624;79;26298;-59
2022/06/01 03:00:23;;;;;;;6.58;4.62;;;;;;;14.23;78.41;98367.08;1772659;79;25549;-59
2022/06/01 03:02:52;;;;;;;5.80;5.20;;;;;;;14.16;78.09;98365.45;1772725;81;25779;-59
2022/06/01 03:05:23;;;;;;;5.92;4.50;;;;;;;14.23;78.40;98376.72;1772307;81;26741;-57
2022/06/01 03:07:50;;;;;;;6.70;4.90;;;;;;;14.31;78.21;98376.38;1772583;80;25717;-57
2022/06/01 03:10:17;;;;;;;7.55;4.95;;;;;;;14.41;77.96;98391.06;1772608;81;25442;-58
2022/06/01 03:12:44;;;;;;;8.65;5.83;;;;;;;14.41;77.96;98391.06;1772613;79;25479;-59
2022/06/01 03:15:14;;;;;;;5.20;4.70;;;;;;;14.37;78.42;98382.45;1772787;79;25538;-59
2022/06/01 03:17:40;;;;;;;6.67;4.78;;;;;;;14.37;78.42;98382.45;1772750;80;27519;-57
2022/06/01 03:20:09;;;;;;;6.67;4.87;;;;;;;14.28;78.71;98387.50;1772491;79;25842;-57
2022/06/01 03:22:37;;;;;;;6.37;4.90;;;;;;;14.28;78.99;98373.72;1772600;79;25594;-60
2022/06/01 03:25:08;;;;;;;5.70;4.92;;;;;;;14.33;79.28;98385.09;1772254;79;25417;-58
2022/06/01 03:27:35;;;;;;;14.05;8.98;;;;;;;14.33;79.28;98385.09;1772811;79;25396;-58
2022/06/01 03:30:03;;;;;;;5.42;4.62;;;;;;;14.45;79.20;98397.27;1772460;81;27410;-58
2022/06/01 03:32:29;;;;;;;7.97;4.83;;;;;;;14.48;78.89;98391.05;1772541;79;25613;-58
2022/06/01 03:34:55;;;;;;;5.97;4.65;;;;;;;14.48;79.21;98410.36;1772775;79;25612;-58
2022/06/01 03:37:21;;;;;;;5.55;4.37;;;;;;;14.48;79.28;98410.36;1772495;79;26134;-58
2022/06/01 03:39:47;;;;;;;6.25;4.95;;;;;;;14.48;79.11;98395.98;1772595;80;25635;-59
2022/06/01 03:42:20;;;;;;;6.92;5.05;;;;;;;14.52;79.08;98404.37;1772805;79;27401;-60
2022/06/01 03:47:32;;;;;;;11.70;6.08;;;;;;;14.66;79.07;98396.55;1772289;81;25688;-59
2022/06/01 03:49:58;;;;;;;8.55;6.67;;;;;;;14.74;79.01;98401.68;1772555;81;26166;-60
2022/06/01 03:52:25;;;;;;;6.75;5.72;;;;;;;14.74;78.71;98390.64;1772767;80;25555;-61
2022/06/01 03:54:51;;;;;;;6.20;4.72;;;;;;;14.78;78.81;98390.77;1772470;79;27824;-61
2022/06/01 03:57:18;;;;;;;5.75;4.53;;;;;;;14.78;78.91;98379.73;1772498;81;25833;-60
2022/06/01 03:59:44;;;;;;;6.70;4.37;;;;;;;14.77;78.50;98382.27;1772843;80;25640;-60
2022/06/01 04:02:10;;;;;;;4.95;4.12;;;;;;;14.59;79.59;98372.88;1788187;80;26054;-60
2022/06/01 04:04:37;;;;;;;7.22;4.35;;;;;;;14.52;79.40;98374.05;1788691;80;25739;-60
2022/06/01 04:07:04;;;;;;;4.62;4.08;;;;;;;14.50;79.37;98379.09;1789198;79;28282;-60
2022/06/01 04:09:31;;;;;;;5.97;4.58;;;;;;;14.56;79.62;98388.73;1789022;79;25896;-60
2022/06/01 04:11:57;;;;;;;7.50;5.28;;;;;;;14.62;79.78;98395.62;1789147;79;25434;-60
2022/06/01 04:14:25;;;;;;;6.03;4.58;;;;;;;14.71;79.61;98396.07;1789074;79;26302;-57
2022/06/01 04:16:51;;;;;;;5.92;4.67;;;;;;;14.68;79.53;98379.06;1789082;79;25695;-57
2022/06/01 04:19:18;;;;;;;5.53;4.65;;;;;;;14.76;79.42;98388.92;1789121;79;27481;-58
2022/06/01 04:21:48;;;;;;;5.55;4.53;;;;;;;14.65;79.32;98374.24;1789170;80;26094;-59
2022/06/01 04:24:19;;;;;;;5.33;4.80;;;;;;;14.67;79.65;98387.69;1769493;80;25422;-60
2022/06/01 04:26:45;;;;;;;9.28;7.00;;;;;;;14.74;79.98;98389.86;1789141;79;25455;-60
2022/06/01 04:29:13;;;;;;;6.87;5.58;;;;;;;14.85;79.85;98379.18;1789065;79;25632;-58
2022/06/01 04:31:39;;;;;;;6.03;4.50;;;;;;;14.93;79.68;98374.08;1769146;80;25805;-59
2022/06/01 04:34:05;;;;;;;7.15;3.98;;;;;;;14.92;79.22;98369.16;1789284;80;25398;-59
2022/06/01 04:36:32;;;;;;;4.60;4.00;;;;;;;14.90;79.35;98362.36;1788700;79;25578;-60
2022/06/01 04:38:57;;;;;;;5.62;3.62;;;;;;;14.84;79.45;98367.90;1789158;79;26202;-60
2022/06/01 04:41:24;;;;;;;4.33;3.35;;;;;;;14.82;79.59;98361.35;1789456;80;25548;-60
2022/06/01 04:43:50;;;;;;;4.72;3.30;;;;;;;14.80;79.41;98360.92;1789052;80;28500;-60
2022/06/01 04:46:16;;;;;;;3.58;3.17;;;;;;;14.75;79.47;98353.66;1788597;80;25391;-59
2022/06/01 04:48:42;;;;;;;5.45;3.60;;;;;;;14.83;79.45;98366.30;1789277;79;25470;-60
2022/06/01 04:51:08;;;;;;;6.12;3.92;;;;;;;14.84;79.64;98367.90;1790587;78;25474;-57
2022/06/01 04:53:34;;;;;;;4.45;4.05;;;;;;;14.84;80.20;98373.41;1801360;78;25214;-60
2022/06/01 04:56:01;;;;;;;4.65;4.05;;;;;;;14.82;80.65;98371.60;1801814;78;27415;-59
2022/06/01 04:58:27;;;;;;;5.33;3.77;;;;;;;14.73;80.91;98366.98;1801175;79;25746;-60
2022/06/01 05:00:53;;;;;;;6.10;4.62;;;;;;;14.68;80.92;98368.59;1784923;79;26390;-57
2022/06/01 05:03:20;;;;;;;5.55;4.00;;;;;;;14.59;81.46;98368.73;1768291;81;25671;-60
2022/06/01 05:05:46;;;;;;;6.92;4.62;;;;;;;14.59;81.46;98368.73;1768404;81;25729;-60
2022/06/01 05:08:15;;;;;;;6.37;4.97;;;;;;;14.60;81.49;98368.98;1768642;81;28019;-60
2022/06/01 05:10:42;;;;;;;8.20;5.08;;;;;;;14.56;81.97;98359.78;1768485;81;25652;-60
2022/06/01 05:13:09;;;;;;;6.37;4.53;;;;;;;14.55;82.55;98366.45;1768260;81;25712;-60
2022/06/01 05:15:41;;;;;;;6.47;4.70;;;;;;;14.55;82.55;98366.45;1768481;81;25719;-59
2022/06/01 05:18:09;;;;;;;7.92;5.17;;;;;;;14.54;82.19;98364.86;1767363;81;25709;-60
2022/06/01 05:20:36;;;;;;;7.12;4.50;;;;;;;14.57;82.17;98358.65;1768513;81;27003;-60
2022/06/01 05:23:02;;;;;;;7.60;4.67;;;;;;;14.57;82.79;98355.89;1768685;81;25662;-60
2022/06/01 05:25:28;;;;;;;9.28;5.00;;;;;;;14.51;82.92;98349.80;1768778;81;25719;-60
2022/06/01 05:27:54;;;;;;;8.83;4.62;;;;;;;14.49;83.25;98349.36;1768668;81;26209;-60
2022/06/01 05:30:21;;;;;;;15.10;5.40;;;;;;;14.47;83.11;98348.08;1768643;81;25719;-60
2022/06/01 05:32:48;;;;;;;19.80;7.00;;;;;;;14.43;83.62;98348.77;1768666;81;27457;-60
2022/06/01 05:35:14;;;;;;;17.20;6.45;;;;;;;14.51;83.47;98351.77;1768097;81;25662;-61
2022/06/01 05:37:40;;;;;;;15.10;6.50;;;;;;;14.60;83.56;98357.14;1763554;81;26014;-58
2022/06/01 05:40:09;;;;;;;16.52;6.70;;;;;;;14.63;83.39;98352.31;1766935;81;25655;-59
2022/06/01 05:42:35;;;;;;;13.08;5.80;;;;;;;14.73;83.51;98356.52;1768714;81;25649;-58
2022/06/01 05:45:01;;;;;;;14.55;6.03;;;;;;;14.82;82.97;98361.95;1767514;79;28230;-58
2022/06/01 05:47:27;;;;;;;17.95;8.25;;;;;;;15.00;83.12;98371.52;1767352;80;25829;-60
2022/06/01 05:49:53;;;;;;;18.42;6.87;;;;;;;15.00;83.12;98371.52;1767699;81;25608;-59
2022/06/01 05:52:20;;;;;;;22.70;7.60;;;;;;;15.08;82.15;98369.77;1767106;81;25667;-60
2022/06/01 05:54:47;;;;;;;24.37;8.18;;;;;;;15.18;82.24;98367.09;1767748;81;26107;-59
2022/06/01 05:57:14;;;;;;;21.02;6.92;;;;;;;15.26;81.93;98375.78;1767480;80;28113;-57
2022/06/01 05:59:40;;;;;;;28.35;9.63;;;;;;;15.30;81.68;98368.42;1771542;79;25752;-56
2022/06/01 06:02:08;;;;;;;18.00;7.45;;;;;;;15.37;81.91;98370.55;1796816;79;25691;-60
2022/06/01 06:04:35;;;;;;;12.68;5.80;;;;;;;15.45;81.86;98367.41;1800271;79;26273;-60
2022/06/01 06:07:01;;;;;;;12.98;5.35;;;;;;;15.60;81.50;98366.41;1800253;79;25720;-59
2022/06/01 06:09:28;;;;;;;12.15;5.62;;;;;;;15.82;81.72;98373.28;1799931;79;28026;-59
2022/06/01 06:11:54;;;;;;;6.92;3.52;;;;;;;16.09;81.18;98374.16;1800239;79;25632;-59
2022/06/01 06:14:21;;;;;;;4.75;3.52;;;;;;;16.24;79.39;98377.48;1800277;79;25635;-59
2022/06/01 06:16:48;;;;;;;6.10;4.10;;;;;;;16.40;79.04;98379.41;1800022;79;25986;-58
2022/06/01 06:19:18;;;;;;;5.03;3.47;;;;;;;16.46;78.78;98380.73;1799841;79;25660;-59
2022/06/01 06:21:45;;;;;;;5.97;3.15;;;;;;;16.58;78.76;98387.31;1800403;79;27365;-60
2022/06/01 06:24:16;;;;;;;4.22;3.70;;;;;;;16.58;76.40;98386.72;1799769;79;25912;-57
2022/06/01 06:26:43;;;;;;;6.28;3.70;;;;;;;16.55;77.69;98384.09;1799978;79;25377;-58
2022/06/01 06:29:12;;;;;;;6.45;3.90;;;;;;;16.62;77.40;98393.72;1800054;79;25628;-60
2022/06/01 06:31:39;;;;;;;5.62;3.90;;;;;;;16.73;77.73;98401.69;1799920;79;25638;-56
2022/06/01 06:34:06;;;;;;;5.67;3.67;;;;;;;16.96;79.01;98409.86;1795887;79;27640;-60
2022/06/01 06:36:33;;;;;;;6.45;3.98;;;;;;;17.13;77.08;98409.45;1799610;79;25647;-57
2022/06/01 06:38:59;;;;;;;6.45;3.67;;;;;;;17.24;76.62;98414.42;1800079;79;25562;-56
2022/06/01 06:41:26;;;;;;;6.20;4.10;;;;;;;17.35;77.12;98409.08;1799854;79;25572;-60
2022/06/01 06:43:52;;;;;;;7.10;3.12;;;;;;;17.48;77.53;98402.23;1800198;79;26034;-61
2022/06/01 06:46:23;;;;;;;5.40;3.80;;;;;;;17.54;75.15;98406.31;1799850;79;27970;-57
2022/06/01 06:48:50;;;;;;;4.85;3.52;;;;;;;17.47;75.05;98405.37;1800703;79;26255;-60
2022/06/01 06:51:19;;;;;;;4.33;2.98;;;;;;;17.52;75.48;98413.36;1800051;79;25691;-58
2022/06/01 06:53:46;;;;;;;3.62;2.62;;;;;;;17.61;75.86;98412.55;1800115;79;25905;-59
2022/06/01 06:56:15;;;;;;;2.80;1.85;;;;;;;17.67;76.02;98412.47;1799761;79;25530;-60
2022/06/01 06:58:41;;;;;;;3.00;2.62;;;;;;;17.61;72.92;98411.16;1799769;79;27486;-58
2022/06/01 07:01:08;;;;;;;2.52;1.60;;;;;;;17.58;73.85;98416.66;1799630;79;25951;-58
2022/06/01 07:03:35;;;;;;;4.87;2.10;;;;;;;17.51;72.45;98415.35;1800124;79;25624;-58
2022/06/01 07:06:11;;;;;;;2.10;1.90;;;;;;;17.48;72.41;98411.93;1799831;79;25521;-60
2022/06/01 07:08:45;;;;;;;2.30;2.10;;;;;;;17.53;73.52;98412.22;1800013;79;25558;-59
2022/06/01 07:11:13;;;;;;;4.22;2.87;;;;;;;17.81;73.71;98418.86;1800050;79;27502;-60
2022/06/01 07:13:40;;;;;;;3.70;2.60;;;;;;;17.97;72.52;98422.10;1800039;79;25466;-58
2022/06/01 07:16:16;;;;;;;2.92;1.87;;;;;;;18.25;73.69;98420.20;1799866;79;25695;-59
2022/06/01 07:18:46;;;;;;;2.10;1.80;;;;;;;18.42;70.52;98419.67;1799619;79;26178;-61
2022/06/01 07:21:14;;;;;;;5.77;3.27;;;;;;;18.58;70.79;98415.13;1800476;79;25695;-57
2022/06/01 07:23:41;;;;;;;3.40;1.95;;;;;;;18.90;70.91;98416.17;1799712;79;27645;-60
2022/06/01 07:26:15;;;;;;;2.35;1.90;;;;;;;19.13;70.57;98416.11;1799929;79;25656;-60
2022/06/01 07:28:41;;;;;;;4.10;2.60;;;;;;;19.45;70.58;98414.88;1797085;79;26408;-60
2022/06/01 07:31:09;;;;;;;2.55;2.10;;;;;;;19.69;69.75;98411.38;1799453;79;25556;-62
2022/06/01 07:33:36;;;;;;;5.55;2.05;;;;;;;20.04;69.35;98417.67;1799943;79;25600;-61
2022/06/01 07:36:06;;;;;;;4.15;2.10;;;;;;;20.18;69.39;98421.95;1799777;79;29469;-60
2022/06/01 07:44:16;;;;;;;4.17;2.40;;;;;;;20.78;66.63;98419.80;1799763;79;25568;-62
2022/06/01 07:46:43;;;;;;;5.58;2.40;;;;;;;21.08;65.50;98413.78;1800136;79;25552;-59
2022/06/01 07:49:09;;;;;;;4.17;2.45;;;;;;;21.34;65.08;98418.86;1799627;79;28490;-60
2022/06/01 07:51:38;;;;;;;4.47;2.52;;;;;;;21.45;64.41;98407.17;1800022;79;25649;-60
2022/06/01 07:54:05;;;;;;;4.28;2.55;;;;;;;21.69;62.47;98411.79;1799849;79;25656;-61
2022/06/01 07:56:32;;;;;;;8.33;3.90;;;;;;;21.92;61.00;98414.84;1800078;79;25728;-59
2022/06/01 07:58:58;;;;;;;3.30;2.02;;;;;;;22.08;59.81;98413.07;1800031;79;25704;-58
2022/06/01 08:01:26;;;;;;;2.85;2.30;;;;;;;22.23;59.19;98411.66;1799059;79;27795;-62
2022/06/01 08:03:58;;;;;;;4.35;2.40;;;;;;;22.45;60.44;98408.23;1790831;79;25373;-62
2022/06/01 08:06:26;;;;;;;3.02;1.98;;;;;;;22.59;59.66;98408.08;1790999;80;25588;-62
2022/06/01 08:08:54;;;;;;;3.12;1.70;;;;;;;22.81;56.55;98409.61;1791113;79;25669;-62
2022/06/01 08:13:06;;;;;;;2.50;1.70;;;;;;;23.05;57.68;98422.50;1791193;80;25381;-62
2022/06/01 08:13:50;;;;;;;1.87;1.70;;;;;;;23.40;58.20;98428.98;1787578;80;25911;-63
2022/06/01 08:16:16;;;;;;;2.02;1.42;;;;;;;23.73;57.40;98420.39;1790906;80;25678;-62
2022/06/01 08:18:42;;;;;;;3.22;1.60;;;;;;;24.05;56.59;98420.18;1790926;79;25653;-60
2022/06/01 08:21:08;;;;;;;2.75;1.60;;;;;;;24.35;56.38;98417.95;1791302;80;26248;-62
2022/06/01 08:23:34;;;;;;;1.32;1.22;;;;;;;24.57;55.68;98414.95;1791312;80;25601;-60
2022/06/01 08:26:01;;;;;;;3.55;1.60;;;;;;;24.67;53.75;98418.87;1786846;80;29483;-59
2022/06/01 08:28:27;;;;;;;2.05;1.35;;;;;;;24.79;55.20;98428.74;1790802;80;25567;-59
2022/06/01 08:30:53;;;;;;;3.15;1.30;;;;;;;24.97;53.50;98429.17;1791185;80;25558;-61
2022/06/01 08:33:20;;;;;;;2.47;1.40;;;;;;;25.25;52.83;98425.84;1791296;79;25976;-58
2022/06/01 08:35:51;;;;;;;2.25;1.62;;;;;;;25.45;52.61;98433.00;1791125;80;25425;-58
2022/06/01 08:38:17;;;;;;;1.70;1.60;;;;;;;25.56;52.26;98430.83;1790765;79;26836;-60
2022/06/01 08:40:57;;;;;;;1.65;1.55;;;;;;;25.81;50.69;98431.12;1790788;79;25380;-61
2022/06/01 08:43:29;;;;;;;;;;;;;;;25.81;49.76;98433.13;1793295;79;25683;-62
2022/06/01 08:46:02;;;;;;;1.50;1.37;;;;;;;26.01;51.51;98429.61;1791104;79;25662;-62
2022/06/01 08:48:47;;;;;;;2.72;1.85;;;;;;;26.16;48.68;98432.98;1791382;80;25440;-62
2022/06/01 08:51:17;;;;;;;1.50;1.30;;;;;;;26.22;50.01;98436.13;1790895;80;27413;-62
2022/06/01 08:53:43;;;;;;;1.70;1.60;;;;;;;26.09;48.89;98438.13;1791021;80;25595;-58
2022/06/01 08:56:18;;;;;;;2.55;1.45;;;;;;;26.40;48.09;98445.05;1791069;79;25640;-61
2022/06/01 08:58:58;;;;;;;2.33;1.60;;;;;;;26.43;46.65;98441.38;1791112;80;25589;-63
2022/06/01 09:01:48;;;;;;;1.65;1.22;;;;;;;26.57;46.02;98436.76;1790801;80;25534;-62
2022/06/01 09:04:45;;;;;;;2.67;1.22;;;;;;;26.67;46.24;98439.98;1789097;79;27872;-60
2022/06/01 09:07:33;;;;;;;1.92;1.15;;;;;;;26.62;43.49;98437.66;1790831;79;25705;-59
2022/06/01 09:10:11;;;;;;;1.70;1.30;;;;;;;26.31;45.92;98436.40;1790892;79;25684;-60
2022/06/01 09:12:38;;;;;;;4.87;1.37;;;;;;;26.08;46.38;98437.95;1790844;80;25592;-59
2022/06/01 09:15:18;;;;;;;4.08;1.50;;;;;;;26.34;47.45;98444.58;1791121;80;25618;-58
2022/06/01 09:17:45;;;;;;;1.87;1.30;;;;;;;26.46;46.33;98449.59;1791233;79;27852;-60
2022/06/01 09:23:03;;;;;;;1.12;1.07;;;;;;;27.29;44.96;98450.68;1787204;80;25613;-63
2022/06/01 09:25:35;;;;;;;1.25;1.15;;;;;;;27.56;44.45;98448.30;1790168;79;25573;-63
2022/06/01 09:28:43;;;;;;;1.15;1.02;;;;;;;27.87;42.59;98443.83;1791149;79;25612;-63
2022/06/01 09:31:24;;;;;;;1.30;1.10;;;;;;;28.09;42.94;98443.92;1769257;80;27517;-61
2022/06/01 09:33:51;;;;;;;3.10;1.37;;;;;;;28.21;41.70;98448.86;1755040;80;26214;-62
2022/06/01 09:36:27;;;;;;;4.33;1.55;;;;;;;28.13;42.16;98451.67;1790956;80;25565;-62
2022/06/01 09:39:03;;;;;;;2.15;1.47;;;;;;;28.26;40.17;98445.50;1790783;80;25481;-63
2022/06/01 09:41:31;;;;;;;2.72;1.37;;;;;;;28.51;40.55;98448.94;1790167;79;25412;-62
2022/06/01 09:44:06;;;;;;;3.67;1.80;;;;;;;28.78;41.09;98453.50;1791378;80;27764;-61
2022/06/01 09:46:52;;;;;;;1.30;1.20;;;;;;;29.10;41.42;98449.00;1790013;79;25573;-60
2022/06/01 09:49:27;;;;;;;3.17;2.37;;;;;;;29.40;40.18;98451.79;1791492;80;25434;-61
2022/06/01 09:52:04;;;;;;;2.35;1.22;;;;;;;29.75;37.05;98451.98;1791413;80;25502;-60
2022/06/01 09:54:34;;;;;;;2.52;1.10;;;;;;;29.91;37.19;98451.70;1790558;79;25438;-60
2022/06/01 09:57:30;;;;;;;4.20;1.50;;;;;;;29.83;36.74;98447.52;1791256;79;28268;-62
2022/06/01 10:06:05;;;;;;;2.90;1.20;;;;;;;29.59;39.48;98455.70;1794378;79;25600;-60
2022/06/01 10:08:30;;;;;;;1.72;1.25;;;;;;;30.39;38.18;98460.26;1707531;83;25728;-62
2022/06/01 10:11:08;;;;;;;1.55;1.20;;;;;;;30.28;37.50;98452.14;1707484;84;27369;-63
2022/06/01 10:13:42;;;;;;;2.98;1.40;;;;;;;30.09;37.38;98463.84;1707050;84;25635;-62
2022/06/01 10:16:41;;;;;;;1.20;1.10;;;;;;;29.75;37.51;98463.27;1702338;84;25531;-63
2022/06/01 10:19:12;;;;;;;3.58;1.30;;;;;;;29.32;36.50;98464.55;1707393;84;25769;-61
2022/06/01 10:21:56;;;;;;;1.42;0.90;;;;;;;29.17;38.06;98462.12;1707685;84;25625;-61
2022/06/01 10:24:28;;;;;;;1.82;1.20;;;;;;;29.26;36.46;98460.05;1700704;84;27469;-63
2022/06/01 10:26:59;;;;;;;4.53;1.70;;;;;;;28.99;36.00;98467.66;1700869;83;25742;-63
2022/06/01 10:29:37;;;;;;;6.15;1.70;;;;;;;28.93;38.47;98461.72;1700662;83;25630;-63
2022/06/01 10:32:15;;;;;;;1.80;1.50;;;;;;;28.70;38.47;98461.35;1700430;84;25938;-60
2022/06/01 10:34:48;;;;;;;2.25;1.50;;;;;;;28.50;37.16;98463.67;1700651;84;25800;-60
2022/06/01 10:37:32;;;;;;;2.77;1.60;;;;;;;28.42;37.99;98464.47;1701167;84;26900;-58
2022/06/01 10:40:16;;;;;;;2.05;1.50;;;;;;;28.66;38.47;98471.91;1748691;80;26036;-61
2022/06/01 10:46:00;;;;;;;2.65;1.90;;;;;;;29.23;36.33;98468.80;1778264;80;25418;-60
2022/06/01 10:48:42;;;;;;;3.15;1.60;;;;;;;28.99;37.16;98469.06;1778071;80;25675;-62
2022/06/01 10:51:12;;;;;;;2.15;1.40;;;;;;;28.77;36.74;98465.99;1778007;80;26798;-63
2022/06/01 10:54:15;;;;;;;1.70;1.45;;;;;;;28.68;36.36;98473.67;1778504;80;25611;-63
2022/06/01 10:56:42;;;;;;;2.72;1.40;;;;;;;28.49;35.98;98470.52;1775397;80;25530;-63
2022/06/01 10:59:13;;;;;;;1.70;1.30;;;;;;;28.54;37.84;98476.25;1777976;80;25770;-63
2022/06/01 11:02:12;;;;;;;1.90;1.60;;;;;;;28.89;37.05;98463.85;1791189;79;25692;-62
2022/06/01 11:05:17;;;;;;;2.17;1.40;;;;;;;29.41;35.88;98464.66;1799506;79;27362;-63
2022/06/01 11:08:32;;;;;;;2.20;1.62;;;;;;;30.23;34.55;98469.69;1799783;79;25629;-58
2022/06/01 11:11:31;;;;;;;1.42;1.27;;;;;;;30.23;31.80;98462.62;1799688;79;25700;-59
2022/06/01 11:14:28;;;;;;;2.27;1.30;;;;;;;29.89;31.81;98471.92;1799520;79;25667;-61
2022/06/01 11:17:11;;;;;;;1.20;1.10;;;;;;;29.95;30.42;98465.70;1799744;79;25780;-61
2022/06/01 11:20:21;;;;;;;2.87;1.20;;;;;;;30.35;30.88;98470.91;1799838;79;27362;-61
2022/06/01 11:23:05;;;;;;;2.08;1.20;;;;;;;30.38;32.02;98467.17;1734490;82;25536;-62
2022/06/01 11:25:39;;;;;;;3.02;1.40;;;;;;;30.26;31.00;98469.39;1734259;82;25702;-58
2022/06/01 11:28:22;;;;;;;2.37;1.50;;;;;;;29.83;31.49;98470.11;1733506;82;25680;-60
2022/06/01 11:30:57;;;;;;;3.12;1.30;;;;;;;29.80;31.98;98470.39;1689983;84;25666;-61
2022/06/01 11:34:01;;;;;;;1.45;1.32;;;;;;;29.88;32.39;98467.50;1689178;84;26917;-62
2022/06/01 11:37:03;;;;;;;1.92;1.40;;;;;;;29.76;32.97;98466.90;1688977;84;26221;-58
2022/06/01 11:39:44;;;;;;;4.55;1.90;;;;;;;29.26;34.35;98476.37;1689838;84;25773;-59
2022/06/01 11:42:37;;;;;;;2.20;1.47;;;;;;;28.74;34.34;98474.73;1690323;84;25768;-61
2022/06/01 11:45:17;;;;;;;1.60;1.40;;;;;;;28.32;33.34;98473.19;1689555;84;25569;-62
2022/06/01 11:47:57;;;;;;;2.70;1.52;;;;;;;27.86;33.64;98480.86;1689985;84;27443;-61
2022/06/01 11:50:50;;;;;;;1.52;1.42;;;;;;;27.22;33.54;98474.72;1689462;84;25765;-62
2022/06/01 11:53:22;;;;;;;1.90;1.40;;;;;;;26.79;35.70;98476.50;1710709;82;26418;-62
2022/06/01 11:55:49;;;;;;;2.67;1.35;;;;;;;26.52;35.55;98473.16;1748604;82;25709;-62
2022/06/01 11:58:30;;;;;;;3.33;1.30;;;;;;;26.26;35.68;98478.38;1750134;82;25697;-61
2022/06/01 12:01:11;;;;;;;3.60;1.35;;;;;;;26.63;35.02;98477.80;1748344;82;28032;-62
2022/06/01 12:03:58;;;;;;;2.72;1.30;;;;;;;27.30;35.55;98467.13;1752530;81;25729;-61
2022/06/01 12:06:41;;;;;;;3.62;1.52;;;;;;;27.72;33.53;98462.27;1730191;79;25686;-59
2022/06/01 12:09:39;;;;;;;1.27;1.12;;;;;;;28.07;33.18;98466.90;1802355;79;25743;-61
2022/06/01 12:12:08;;;;;;;1.45;1.15;;;;;;;28.42;31.28;98456.63;1802616;79;25595;-61
2022/06/01 12:14:39;;;;;;;3.00;1.40;;;;;;;28.76;32.25;98458.17;1773810;79;27370;-58
2022/06/01 12:17:25;;;;;;;2.47;1.20;;;;;;;29.30;34.37;98451.66;1802264;79;25407;-62
2022/06/01 12:20:22;;;;;;;1.80;1.22;;;;;;;29.75;32.10;98451.98;1802451;79;25431;-62